Little Torch Key, Florida
Current Conditions -  °F | °C
As of 5:53 AM on Wednesday 22 Oct 2014 (Local Time) from KEYW Reporting Station
Clear Clear  
Wind Chill: 78°   Ceiling: Unl
Heat Index: 81°   Visibility: 10mi
Dew Point: 76°   Wind: 5mph
Humidity: 93%   Direction: 80°E
Pressure: 29.91"   Gusts: NA
Location:  24.6465°N, 81.5399°W
Report Text: KEYW 220953Z AUTO 08004KT 10SM CLR 26/24 A2991 RMK AO2 SLP126 T02560244
Loading
Personal Weather Stations






























Interactive Weather Map
Tropical Storm Tracking
New forecast layout! Learn more

10-Day Weather Forecast

Advertisements
Track Severe Weather on mobile